Time;durP1;ratioP1;P1;durP2;ratioP2;P2;SDS_P1;SDS_P2;PMS_P1;PMS_P2;Temp;Humidity;BMP_temperature;BMP_pressure;BME280_temperature;BME280_humidity;BME280_pressure;Samples;Min_cycle;Max_cycle;Signal;HPM_P1;HPM_P2
2022/12/14 00:00:29;;;;;;;;;;;-3274.90;79.80;;;;;;5072970;28;20389;-86
2022/12/14 00:02:54;;;;;;;;;;;-3275.00;79.70;;;;;;5057603;28;19912;-84
2022/12/14 00:05:20;;;;;;;;;;;-3275.00;79.50;;;;;;5076326;28;19923;-84
2022/12/14 00:07:45;;;;;;;;;;;-3274.90;79.60;;;;;;5055739;28;19972;-86
2022/12/14 00:10:11;;;;;;;;;;;-3274.90;80.00;;;;;;5049291;28;19919;-87
2022/12/14 00:12:36;;;;;;;;;;;-3275.00;80.20;;;;;;5054992;28;19913;-85
2022/12/14 00:15:02;;;;;;;;;;;-3275.00;80.10;;;;;;5057068;28;19912;-86
2022/12/14 00:17:27;;;;;;;;;;;-3275.00;79.80;;;;;;5074699;28;19909;-84
2022/12/14 00:19:53;;;;;;;;;;;-3274.90;80.00;;;;;;5058873;28;19916;-85
2022/12/14 00:22:19;;;;;;;;;;;-3274.80;79.80;;;;;;5054227;28;19917;-84
2022/12/14 00:24:44;;;;;;;;;;;-3274.80;79.70;;;;;;5055933;28;19917;-85
2022/12/14 00:27:10;;;;;;;;;;;-3274.80;79.60;;;;;;5052433;28;19913;-85
2022/12/14 00:29:35;;;;;;;;;;;-3274.70;79.60;;;;;;5056348;28;19967;-84
2022/12/14 00:32:01;;;;;;;;;;;-3274.80;79.60;;;;;;5050224;28;19917;-84
2022/12/14 00:34:26;;;;;;;;;;;-3274.70;79.50;;;;;;5054212;28;19913;-85
2022/12/14 00:36:52;;;;;;;;;;;-3274.70;79.70;;;;;;5064545;28;19960;-85
2022/12/14 00:39:17;;;;;;;;;;;-3274.80;80.00;;;;;;5054585;28;20390;-85
2022/12/14 00:41:42;;;;;;;;;;;-3275.00;79.50;;;;;;5053723;28;19917;-85
2022/12/14 00:44:11;;;;;;;;;;;-3275.00;79.20;;;;;;5052364;28;19971;-85
2022/12/14 00:46:36;;;;;;;;;;;-3275.00;79.10;;;;;;5051658;28;19980;-85
2022/12/14 00:49:02;;;;;;;;;;;-3275.00;78.40;;;;;;5059611;28;19935;-85
2022/12/14 00:51:27;;;;;;;;;;;-3275.00;78.80;;;;;;5054869;28;19912;-85
2022/12/14 00:53:53;;;;;;;;;;;-3275.00;78.20;;;;;;5057909;28;19920;-85
2022/12/14 00:56:18;;;;;;;;;;;-3275.10;78.30;;;;;;5056242;28;19924;-85
2022/12/14 00:58:48;;;;;;;;;;;-3275.00;78.10;;;;;;5049934;28;19914;-85
2022/12/14 01:01:14;;;;;;;;;;;-3275.10;78.00;;;;;;5053421;28;20362;-85
2022/12/14 01:03:42;;;;;;;;;;;-3275.00;77.80;;;;;;5054226;28;19920;-85
2022/12/14 01:06:15;;;;;;;;;;;-3275.00;77.80;;;;;;5077409;22;19929;-85
2022/12/14 01:08:40;;;;;;;;;;;-3274.90;77.70;;;;;;5051526;28;19959;-85
2022/12/14 01:11:06;;;;;;;;;;;-3274.90;77.50;;;;;;5067912;28;20362;-84
2022/12/14 01:13:32;;;;;;;;;;;-3275.00;77.80;;;;;;5052873;28;19999;-85
2022/12/14 01:16:16;;;;;;;;;;;-3275.00;77.00;;;;;;5056707;28;19951;-86
2022/12/14 01:18:42;;;;;;;;;;;-3275.10;77.40;;;;;;5055685;28;19917;-86
2022/12/14 01:21:07;;;;;;;;;;;-3275.10;77.30;;;;;;5045294;28;20061;-85
2022/12/14 01:23:33;;;;;;;;;;;-3275.20;77.30;;;;;;5057808;28;19920;-85
2022/12/14 01:25:58;;;;;;;;;;;-3275.20;77.00;;;;;;5057122;28;20398;-85
2022/12/14 01:28:24;;;;;;;;;;;-3275.10;77.00;;;;;;5061381;28;19924;-86
2022/12/14 01:30:49;;;;;;;;;;;-3275.10;77.00;;;;;;5063289;28;19901;-85
2022/12/14 01:33:15;;;;;;;;;;;-3275.10;76.50;;;;;;5065901;28;19912;-86
2022/12/14 01:35:40;;;;;;;;;;;-3275.00;76.10;;;;;;5077230;28;19921;-86
2022/12/14 01:38:06;;;;;;;;;;;-3275.00;76.60;;;;;;5061808;28;19913;-85
2022/12/14 01:40:31;;;;;;;;;;;-3275.00;76.60;;;;;;5061787;28;19912;-86
2022/12/14 01:42:57;;;;;;;;;;;-3275.00;76.80;;;;;;5057083;28;20475;-86
2022/12/14 01:45:22;;;;;;;;;;;-3274.90;77.10;;;;;;5059299;28;19923;-86
2022/12/14 01:47:50;;;;;;;;;;;-3275.00;77.10;;;;;;5060243;28;19916;-86
2022/12/14 01:50:23;;;;;;;;;;;-3275.10;76.40;;;;;;5059316;28;19979;-86
2022/12/14 01:52:52;;;;;;;;;;;-3275.00;76.70;;;;;;5072659;28;19913;-86
2022/12/14 01:55:24;;;;;;;;;;;-3274.90;76.40;;;;;;5056932;28;19972;-84
2022/12/14 01:57:56;;;;;;;;;;;-3274.80;76.50;;;;;;5051582;28;20365;-86
2022/12/14 02:00:22;;;;;;;;;;;-3274.70;76.70;;;;;;5073104;28;19913;-85
2022/12/14 02:02:57;;;;;;;;;;;-3274.80;76.80;;;;;;5056097;28;19917;-86
2022/12/14 02:05:24;;;;;;;;;;;-3274.80;77.20;;;;;;5053869;28;20381;-85
2022/12/14 02:07:50;;;;;;;;;;;-3274.90;76.80;;;;;;5057968;28;19913;-86
2022/12/14 02:10:16;;;;;;;;;;;-3274.90;76.40;;;;;;5064750;28;19960;-85
2022/12/14 02:12:44;;;;;;;;;;;-3275.00;76.10;;;;;;5065541;28;19913;-85
2022/12/14 02:15:11;;;;;;;;;;;-3275.00;76.20;;;;;;5055932;28;19951;-85
2022/12/14 02:17:37;;;;;;;;;;;-3274.90;76.10;;;;;;5056157;28;19972;-85
2022/12/14 02:20:05;;;;;;;;;;;-3274.90;76.30;;;;;;5075523;28;19920;-84
2022/12/14 02:22:58;;;;;;;;;;;-3275.00;76.10;;;;;;5087936;28;19927;-85
2022/12/14 02:25:45;;;;;;;;;;;-3275.00;76.60;;;;;;5053078;28;19960;-85
2022/12/14 02:28:24;;;;;;;;;;;-3274.90;76.60;;;;;;5051900;28;19916;-86
2022/12/14 02:31:08;;;;;;;;;;;-3275.00;76.30;;;;;;5056393;28;19972;-86
2022/12/14 02:33:40;;;;;;;;;;;-3274.90;76.00;;;;;;5074514;28;19913;-86
2022/12/14 02:36:10;;;;;;;;;;;-3274.90;75.70;;;;;;5058404;28;19917;-84
2022/12/14 02:38:39;;;;;;;;;;;-3274.80;75.90;;;;;;5058186;28;19948;-85
2022/12/14 02:41:42;;;;;;;;;;;-3274.70;76.20;;;;;;5051903;28;19936;-85
2022/12/14 02:44:14;;;;;;;;;;;-3274.60;76.10;;;;;;4993071;28;20373;-85
2022/12/14 02:46:40;;;;;;;;;;;-3274.50;76.40;;;;;;4998185;28;19913;-85
2022/12/14 02:49:38;;;;;;;;;;;-3274.50;76.80;;;;;;5034156;28;19913;-85
2022/12/14 02:52:15;;;;;;;;;;;-3274.50;77.30;;;;;;5023922;28;20382;-85
2022/12/14 02:54:47;;;;;;;;;;;-3274.50;77.00;;;;;;5067765;28;20358;-85
2022/12/14 02:57:28;;;;;;;;;;;-3274.50;77.10;;;;;;5059347;28;19972;-85
2022/12/14 02:59:56;;;;;;;;;;;-3274.70;76.70;;;;;;5051877;28;19922;-85
2022/12/14 03:02:22;;;;;;;;;;;-3274.70;76.00;;;;;;5074056;28;19979;-86
2022/12/14 03:04:48;;;;;;;;;;;-3274.50;76.60;;;;;;5062726;28;20390;-86
2022/12/14 03:07:28;;;;;;;;;;;-3274.50;76.30;;;;;;5049592;28;19913;-85
2022/12/14 03:09:54;;;;;;;;;;;-3274.40;76.60;;;;;;5060857;28;19913;-86
2022/12/14 03:12:19;;;;;;;;;;;-3274.50;77.30;;;;;;5072275;28;20009;-85
2022/12/14 03:14:46;;;;;;;;;;;-3274.50;77.10;;;;;;5054510;28;19916;-85
2022/12/14 03:17:15;;;;;;;;;;;-3274.40;76.90;;;;;;5058746;28;19920;-86
2022/12/14 03:19:45;;;;;;;;;;;-3274.40;76.90;;;;;;5058159;28;20270;-86
2022/12/14 03:22:14;;;;;;;;;;;-3274.20;77.00;;;;;;5071522;28;19928;-85
2022/12/14 03:24:42;;;;;;;;;;;-3274.30;77.60;;;;;;5054767;28;19956;-86
2022/12/14 03:27:11;;;;;;;;;;;-3274.30;77.50;;;;;;5055662;28;19966;-85
2022/12/14 03:29:39;;;;;;;;;;;-3274.40;77.80;;;;;;5067508;28;19931;-86
2022/12/14 03:32:07;;;;;;;;;;;-3274.50;77.70;;;;;;5056626;28;19919;-85
2022/12/14 03:34:34;;;;;;;;;;;-3274.60;77.40;;;;;;5065282;28;19909;-85
2022/12/14 03:37:03;;;;;;;;;;;-3274.50;76.40;;;;;;5063681;28;19913;-85
2022/12/14 03:39:31;;;;;;;;;;;-3274.50;76.70;;;;;;5074277;28;20358;-84
2022/12/14 03:42:03;;;;;;;;;;;-3274.40;76.70;;;;;;5057045;28;19916;-85
2022/12/14 03:44:43;;;;;;;;;;;-3274.30;77.00;;;;;;5057986;28;20011;-85
2022/12/14 03:47:16;;;;;;;;;;;-3274.30;77.20;;;;;;5051414;28;19983;-85
2022/12/14 03:49:54;;;;;;;;;;;-3274.40;77.20;;;;;;5047016;28;19979;-84
2022/12/14 03:52:20;;;;;;;;;;;-3274.40;77.20;;;;;;5055047;28;19920;-85
2022/12/14 03:54:52;;;;;;;;;;;-3274.60;77.10;;;;;;5073497;28;19908;-85
2022/12/14 03:57:33;;;;;;;;;;;-3274.40;76.80;;;;;;5055044;28;20004;-86
2022/12/14 04:00:06;;;;;;;;;;;-3274.60;77.00;;;;;;5062002;28;20004;-85
2022/12/14 04:02:37;;;;;;;;;;;-3274.60;76.90;;;;;;5059070;28;19916;-85
2022/12/14 04:05:06;;;;;;;;;;;-3274.50;76.70;;;;;;5052304;28;19917;-85
2022/12/14 04:07:40;;;;;;;;;;;-3274.40;76.70;;;;;;5056128;28;20294;-85
2022/12/14 04:21:23;;;;;;;;;;;-3274.30;77.60;;;;;;5056857;28;19928;-83
2022/12/14 04:26:41;;;;;;;;;;;-3274.40;77.50;;;;;;5057350;28;19955;-84
2022/12/14 04:31:59;;;;;;;;;;;-3274.20;77.30;;;;;;5060908;28;19958;-85
2022/12/14 04:34:26;;;;;;;;;;;-3274.10;77.80;;;;;;5054829;28;19921;-86
2022/12/14 04:36:54;;;;;;;;;;;-3274.10;77.90;;;;;;5063653;28;19966;-84
2022/12/14 04:39:26;;;;;;;;;;;-3274.00;78.00;;;;;;5077712;28;19921;-84
2022/12/14 04:41:53;;;;;;;;;;;-3274.10;78.10;;;;;;5071073;28;19908;-85
2022/12/14 04:44:28;;;;;;;;;;;-3274.00;78.20;;;;;;5064234;28;20023;-85
2022/12/14 04:46:54;;;;;;;;;;;-3274.00;78.20;;;;;;5055591;28;19912;-84
2022/12/14 04:49:20;;;;;;;;;;;-3274.00;78.40;;;;;;5058355;28;20407;-84
2022/12/14 04:51:48;;;;;;;;;;;-3274.10;78.10;;;;;;5054749;28;19921;-85
2022/12/14 04:54:26;;;;;;;;;;;-3274.10;78.10;;;;;;5057320;28;19919;-85
2022/12/14 04:56:59;;;;;;;;;;;-3274.10;78.00;;;;;;5058730;28;19913;-85
2022/12/14 04:59:24;;;;;;;;;;;-3274.10;78.10;;;;;;5064658;28;19940;-84
2022/12/14 05:02:09;;;;;;;;;;;-3274.20;78.00;;;;;;5065924;28;20366;-85
2022/12/14 05:04:41;;;;;;;;;;;-3274.20;77.80;;;;;;5057851;28;19921;-84
2022/12/14 05:07:09;;;;;;;;;;;-3274.20;77.40;;;;;;5051124;28;19921;-84
2022/12/14 05:09:41;;;;;;;;;;;-3274.20;77.00;;;;;;5052231;28;19952;-84
2022/12/14 05:12:26;;;;;;;;;;;-3274.30;77.20;;;;;;5056013;28;19952;-84
2022/12/14 05:14:57;;;;;;;;;;;-3274.30;77.20;;;;;;5050836;28;19984;-82
2022/12/14 05:17:23;;;;;;;;;;;-3274.40;77.00;;;;;;5056600;28;20295;-83
2022/12/14 05:19:49;;;;;;;;;;;-3274.40;76.60;;;;;;5071631;28;19934;-82
2022/12/14 05:22:15;;;;;;;;;;;-3274.40;76.50;;;;;;5055953;28;19912;-86
2022/12/14 05:24:40;;;;;;;;;;;-3274.50;76.40;;;;;;5049864;28;20402;-83
2022/12/14 05:27:06;;;;;;;;;;;-3274.50;76.10;;;;;;5057968;28;19917;-85
2022/12/14 05:29:31;;;;;;;;;;;-3274.50;75.90;;;;;;5060693;28;20003;-85
2022/12/14 05:31:57;;;;;;;;;;;-3274.50;76.50;;;;;;5072181;28;19921;-84
2022/12/14 05:34:22;;;;;;;;;;;-3274.50;76.00;;;;;;5059313;28;19948;-86
2022/12/14 05:36:48;;;;;;;;;;;-3274.50;76.00;;;;;;5066334;28;19901;-83
2022/12/14 05:39:14;;;;;;;;;;;-3274.50;75.70;;;;;;5087317;28;19905;-84
2022/12/14 05:41:39;;;;;;;;;;;-3274.40;75.80;;;;;;5069516;28;19924;-85
2022/12/14 05:44:05;;;;;;;;;;;-3274.40;76.20;;;;;;5048325;28;19921;-86
2022/12/14 05:46:30;;;;;;;;;;;-3274.40;76.50;;;;;;5051975;28;19916;-85
2022/12/14 05:48:55;;;;;;;;;;;-3274.60;76.20;;;;;;5055170;28;19917;-86
2022/12/14 05:51:21;;;;;;;;;;;-3274.70;75.70;;;;;;5054693;28;19928;-84
2022/12/14 05:53:46;;;;;;;;;;;-3274.80;76.00;;;;;;5042738;28;19931;-84
2022/12/14 05:56:12;;;;;;;;;;;-3274.80;75.50;;;;;;5066690;28;19975;-86
2022/12/14 05:58:38;;;;;;;;;;;-3274.90;75.70;;;;;;5058261;28;20310;-88
2022/12/14 06:01:08;;;;;;;;;;;-3274.90;75.20;;;;;;5057050;28;19920;-88
2022/12/14 06:03:33;;;;;;;;;;;-3274.90;75.20;;;;;;5048907;28;19940;-88
2022/12/14 06:06:00;;;;;;;;;;;-3274.90;74.90;;;;;;5045450;28;19940;-89
2022/12/14 06:08:26;;;;;;;;;;;-3274.90;75.30;;;;;;5050822;28;19959;-89
2022/12/14 06:10:51;;;;;;;;;;;-3275.00;75.30;;;;;;5067124;28;19913;-88
2022/12/14 06:13:17;;;;;;;;;;;-3275.00;75.00;;;;;;5068965;28;19954;-88
2022/12/14 06:15:42;;;;;;;;;;;-3275.00;74.90;;;;;;5047740;28;19913;-89
2022/12/14 06:18:08;;;;;;;;;;;-3275.10;74.20;;;;;;5068545;28;20451;-89
2022/12/14 06:20:33;;;;;;;;;;;-3275.00;75.00;;;;;;5050288;28;19935;-87
2022/12/14 06:22:59;;;;;;;;;;;-3275.00;74.90;;;;;;5066953;28;19901;-87
2022/12/14 06:25:24;;;;;;;;;;;-3274.90;75.20;;;;;;5072470;28;20301;-86
2022/12/14 06:27:52;;;;;;;;;;;-3274.90;75.30;;;;;;5068701;28;19916;-87
2022/12/14 06:30:17;;;;;;;;;;;-3275.00;75.60;;;;;;5059519;28;19916;-86
2022/12/14 06:32:43;;;;;;;;;;;-3275.00;75.30;;;;;;5050279;28;19935;-86
2022/12/14 06:35:08;;;;;;;;;;;-3275.00;75.00;;;;;;5052154;28;19919;-86
2022/12/14 06:37:34;;;;;;;;;;;-3275.00;75.30;;;;;;5055666;28;20290;-85
2022/12/14 06:39:59;;;;;;;;;;;-3275.00;75.50;;;;;;5055010;28;19913;-86
2022/12/14 06:42:24;;;;;;;;;;;-3274.90;75.50;;;;;;5074865;28;20283;-85
2022/12/14 06:44:50;;;;;;;;;;;-3274.90;75.30;;;;;;5065230;28;19917;-85
2022/12/14 06:47:16;;;;;;;;;;;-3274.90;75.10;;;;;;5050900;28;19920;-87
2022/12/14 06:49:41;;;;;;;;;;;-3275.00;75.20;;;;;;5050534;28;19920;-86
2022/12/14 06:52:06;;;;;;;;;;;-3275.00;75.70;;;;;;5054418;28;19919;-86
2022/12/14 06:54:32;;;;;;;;;;;-3275.00;75.80;;;;;;5054547;28;19913;-87
2022/12/14 06:56:57;;;;;;;;;;;-3275.00;75.60;;;;;;5057553;28;19916;-87
2022/12/14 06:59:23;;;;;;;;;;;-3275.00;76.10;;;;;;5051655;28;19921;-86
2022/12/14 07:01:48;;;;;;;;;;;-3275.00;76.00;;;;;;5044939;28;19936;-86
2022/12/14 07:04:16;;;;;;;;;;;-3275.00;76.00;;;;;;5057753;28;19917;-86
2022/12/14 07:06:41;;;;;;;;;;;-3275.00;76.10;;;;;;5081088;22;20396;-77
2022/12/14 07:09:10;;;;;;;;;;;-3275.00;76.00;;;;;;5052361;28;20068;-76
2022/12/14 07:11:36;;;;;;;;;;;-3274.90;76.10;;;;;;5054481;28;20346;-77
2022/12/14 07:14:04;;;;;;;;;;;-3275.00;76.20;;;;;;5050402;28;19971;-75
2022/12/14 07:16:30;;;;;;;;;;;-3275.10;76.20;;;;;;5050849;28;19909;-77
2022/12/14 07:18:57;;;;;;;;;;;-3275.10;76.20;;;;;;5047162;28;20031;-77
2022/12/14 07:21:22;;;;;;;;;;;-3275.20;76.50;;;;;;5056978;28;20387;-77
2022/12/14 07:23:50;;;;;;;;;;;-3275.10;76.10;;;;;;5050601;28;19912;-76
2022/12/14 07:26:18;;;;;;;;;;;-3275.00;76.30;;;;;;5046418;28;19916;-76
2022/12/14 07:28:44;;;;;;;;;;;-3275.10;76.40;;;;;;5047046;28;19996;-77
2022/12/14 07:31:11;;;;;;;;;;;-3275.00;76.20;;;;;;5052792;28;19940;-76
2022/12/14 07:33:37;;;;;;;;;;;-3275.10;76.10;;;;;;5045800;28;19943;-77
2022/12/14 07:36:07;;;;;;;;;;;-3275.00;76.10;;;;;;5049083;28;19919;-77
2022/12/14 07:38:33;;;;;;;;;;;-3275.00;76.60;;;;;;5050266;28;19996;-76
2022/12/14 07:41:07;;;;;;;;;;;-3275.00;76.40;;;;;;5056230;28;20368;-77
2022/12/14 07:43:32;;;;;;;;;;;-3275.00;76.40;;;;;;5053997;28;19913;-76
2022/12/14 07:46:03;;;;;;;;;;;-3275.00;76.70;;;;;;5051617;28;19923;-77
2022/12/14 07:48:29;;;;;;;;;;;-3275.00;76.70;;;;;;5051337;28;20566;-77
2022/12/14 07:50:59;;;;;;;;;;;-3274.90;76.60;;;;;;5051664;28;19908;-77
2022/12/14 07:53:24;;;;;;;;;;;-3274.90;76.70;;;;;;5052003;28;20002;-76
2022/12/14 07:55:50;;;;;;;;;;;-3275.00;76.80;;;;;;5051174;28;20349;-77
2022/12/14 07:58:15;;;;;;;;;;;-3275.00;77.00;;;;;;5051005;28;19917;-77
2022/12/14 08:00:41;;;;;;;;;;;-3275.00;77.10;;;;;;5050442;28;19951;-76
2022/12/14 08:03:06;;;;;;;;;;;-3275.00;77.00;;;;;;5051705;28;20324;-77
2022/12/14 08:05:32;;;;;;;;;;;-3275.00;77.20;;;;;;5053315;28;19916;-79
2022/12/14 08:07:57;;;;;;;;;;;-3274.90;76.90;;;;;;5053330;28;19917;-76
2022/12/14 08:10:22;;;;;;;;;;;-3274.90;76.70;;;;;;5050489;28;20287;-77
2022/12/14 08:12:48;;;;;;;;;;;-3274.90;77.00;;;;;;5048502;28;19979;-77
2022/12/14 08:15:14;;;;;;;;;;;-3275.00;77.20;;;;;;5048441;28;19913;-76
2022/12/14 08:17:39;;;;;;;;;;;-3275.10;77.00;;;;;;5052806;28;19909;-76
2022/12/14 08:20:05;;;;;;;;;;;-3275.10;76.50;;;;;;5053360;28;19913;-77
2022/12/14 08:22:30;;;;;;;;;;;-3275.00;76.40;;;;;;5050306;28;19917;-76
2022/12/14 08:24:56;;;;;;;;;;;-3275.00;76.90;;;;;;5053249;28;19927;-76
2022/12/14 08:27:21;;;;;;;;;;;-3274.90;76.70;;;;;;5050262;28;19923;-77
2022/12/14 08:29:47;;;;;;;;;;;-3274.80;77.00;;;;;;5056296;28;19928;-77
2022/12/14 08:32:12;;;;;;;;;;;-3274.70;77.30;;;;;;5050737;28;20277;-77
2022/12/14 08:34:37;;;;;;;;;;;-3274.70;77.20;;;;;;5058903;28;20007;-80
2022/12/14 08:37:03;;;;;;;;;;;-3274.70;77.80;;;;;;5050753;28;19912;-76
2022/12/14 08:39:28;;;;;;;;;;;-3274.70;78.40;;;;;;5051528;28;19913;-76
2022/12/14 08:41:54;;;;;;;;;;;-3274.70;78.30;;;;;;5049084;28;19909;-77
2022/12/14 08:44:20;;;;;;;;;;;-3274.70;78.70;;;;;;5048547;28;19984;-76
2022/12/14 08:46:45;;;;;;;;;;;-3274.80;78.80;;;;;;5051404;28;19920;-76
2022/12/14 08:49:11;;;;;;;;;;;-3274.90;78.30;;;;;;5050555;28;19945;-76
2022/12/14 08:51:37;;;;;;;;;;;-3275.10;77.30;;;;;;5048027;28;19917;-77
2022/12/14 08:54:02;;;;;;;;;;;-3275.10;77.10;;;;;;5053365;28;19916;-77
2022/12/14 08:56:28;;;;;;;;;;;-3275.20;77.30;;;;;;5050997;28;19908;-75
2022/12/14 08:58:54;;;;;;;;;;;-3275.30;77.30;;;;;;5049908;28;19916;-77
2022/12/14 09:01:21;;;;;;;;;;;-3275.30;77.10;;;;;;5052996;28;19912;-75
2022/12/14 09:03:47;;;;;;;;;;;-3275.20;76.80;;;;;;5066966;28;19917;-76
2022/12/14 09:06:14;;;;;;;;;;;-3275.40;76.70;;;;;;5071122;28;19956;-76
2022/12/14 09:08:40;;;;;;;;;;;-3275.40;76.40;;;;;;5070419;28;20403;-73
2022/12/14 09:11:05;;;;;;;;;;;-3275.20;76.10;;;;;;5069375;28;19923;-74
2022/12/14 09:13:32;;;;;;;;;;;-3275.30;76.20;;;;;;5066184;28;20558;-76
2022/12/14 09:15:58;;;;;;;;;;;-3275.30;76.30;;;;;;5071482;28;20527;-75
2022/12/14 09:18:24;;;;;;;;;;;-3275.50;76.20;;;;;;5072971;28;19909;-74
2022/12/14 09:20:53;;;;;;;;;;;-3275.50;75.70;;;;;;5052933;28;20491;-76
2022/12/14 09:23:19;;;;;;;;;;;-3275.40;75.60;;;;;;5052438;28;19909;-77
2022/12/14 09:25:45;;;;;;;;;;;-3275.50;75.70;;;;;;5048073;28;19916;-74
2022/12/14 09:28:10;;;;;;;;;;;-3275.30;75.50;;;;;;5045962;28;19919;-75
2022/12/14 09:30:36;;;;;;;;;;;-3275.20;76.10;;;;;;5042305;28;19921;-76
2022/12/14 09:33:01;;;;;;;;;;;-3275.20;76.40;;;;;;5043625;28;20016;-75
2022/12/14 09:35:26;;;;;;;;;;;-3275.30;77.10;;;;;;5049522;28;19917;-75
2022/12/14 09:37:52;;;;;;;;;;;-3275.40;77.20;;;;;;5048792;28;19912;-76
2022/12/14 09:40:18;;;;;;;;;;;-3275.50;77.10;;;;;;5044050;28;19991;-76
2022/12/14 09:42:52;;;;;;;;;;;-3275.40;76.70;;;;;;5040582;28;20368;-76
2022/12/14 09:45:24;;;;;;;;;;;-3275.40;76.60;;;;;;5047541;28;19916;-76
2022/12/14 09:48:04;;;;;;;;;;;-3275.40;77.00;;;;;;5049490;28;20292;-76
2022/12/14 09:50:30;;;;;;;;;;;-3275.30;77.30;;;;;;5045764;28;19917;-76
2022/12/14 09:52:58;;;;;;;;;;;-3275.30;77.70;;;;;;5047348;28;19957;-76
2022/12/14 09:55:34;;;;;;;;;;;-3275.40;77.60;;;;;;5044586;28;19912;-75
2022/12/14 09:58:02;;;;;;;;;;;-3275.30;77.40;;;;;;5032846;28;19913;-75
2022/12/14 10:00:31;;;;;;;;;;;-3275.40;78.10;;;;;;5046231;28;20015;-76
2022/12/14 10:03:03;;;;;;;;;;;-3275.50;77.60;;;;;;5045424;28;19921;-74
2022/12/14 10:05:47;;;;;;;;;;;-3275.50;77.10;;;;;;5048281;28;19917;-76
2022/12/14 10:08:36;;;;;;;;;;;-3275.40;77.00;;;;;;5047618;28;19922;-76
2022/12/14 10:11:01;;;;;;;;;;;-3275.40;77.00;;;;;;5039795;28;20339;-75
2022/12/14 10:13:33;;;;;;;;;;;-3275.40;77.10;;;;;;5047239;28;19992;-76
2022/12/14 10:16:07;;;;;;;;;;;-3275.40;77.30;;;;;;5045188;28;19920;-76
2022/12/14 10:18:38;;;;;;;;;;;-3275.30;77.60;;;;;;5040271;28;20372;-76
2022/12/14 10:21:08;;;;;;;;;;;-3275.30;77.60;;;;;;5043061;28;20007;-75
2022/12/14 10:23:34;;;;;;;;;;;-3275.20;77.70;;;;;;5043922;28;20020;-76
2022/12/14 10:26:06;;;;;;;;;;;-3275.20;77.90;;;;;;5045131;28;19986;-75
2022/12/14 10:28:47;;;;;;;;;;;-3275.20;77.90;;;;;;5037449;28;20291;-76
2022/12/14 10:31:15;;;;;;;;;;;-3275.20;77.80;;;;;;5049280;28;20269;-76
2022/12/14 10:33:45;;;;;;;;;;;-3275.20;78.20;;;;;;5062339;28;20403;-76
2022/12/14 10:36:16;;;;;;;;;;;-3275.10;78.40;;;;;;5047592;28;19923;-76
2022/12/14 10:38:46;;;;;;;;;;;-3275.20;78.30;;;;;;5043334;28;20241;-76
2022/12/14 10:41:26;;;;;;;;;;;-3275.20;78.30;;;;;;5045942;28;20356;-76
2022/12/14 10:43:58;;;;;;;;;;;-3275.30;78.50;;;;;;5041404;28;20323;-76
2022/12/14 10:46:23;;;;;;;;;;;-3275.50;78.40;;;;;;5039079;28;19913;-76
2022/12/14 10:48:55;;;;;;;;;;;-3275.60;78.10;;;;;;5041953;28;19920;-76
2022/12/14 10:51:26;;;;;;;;;;;-3275.70;77.60;;;;;;5044498;28;19917;-74
2022/12/14 10:53:58;;;;;;;;;;;-3275.70;77.10;;;;;;5041914;28;19967;-76
2022/12/14 10:56:26;;;;;;;;;;;-3275.70;77.10;;;;;;5044285;28;19916;-75
2022/12/14 10:59:10;;;;;;;;;;;-3275.80;76.90;;;;;;5050026;28;20280;-76
2022/12/14 11:01:35;;;;;;;;;;;-3276.00;76.60;;;;;;5039556;28;20378;-76
2022/12/14 11:04:01;;;;;;;;;;;-3276.10;76.40;;;;;;5059909;28;19909;-76
2022/12/14 11:06:26;;;;;;;;;;;-3276.20;76.20;;;;;;5049061;28;19931;-76
2022/12/14 11:08:52;;;;;;;;;;;-3276.20;76.00;;;;;;5046874;28;19912;-76
2022/12/14 11:11:20;;;;;;;;;;;-3276.20;75.70;;;;;;5049314;28;19909;-75
2022/12/14 11:14:05;;;;;;;;;;;-3276.20;75.80;;;;;;5045326;28;19986;-76
2022/12/14 11:16:35;;;;;;;;;;;-3276.30;76.00;;;;;;5046132;28;20291;-75
2022/12/14 11:19:01;;;;;;;;;;;-3276.30;75.80;;;;;;5043380;28;20376;-75
2022/12/14 11:21:28;;;;;;;;;;;-3276.50;75.80;;;;;;5049311;28;19921;-77
2022/12/14 11:23:53;;;;;;;;;;;-3276.60;75.70;;;;;;5042640;28;20016;-77
2022/12/14 11:26:25;;;;;;;;;;;-3276.70;75.30;;;;;;5042884;28;19971;-77
2022/12/14 11:28:52;;;;;;;;;;;-3276.50;75.40;;;;;;5051332;28;19913;-76
2022/12/14 11:31:21;;;;;;;;;;;-3276.70;75.20;;;;;;5039733;28;19923;-77
2022/12/14 11:33:48;;;;;;;;;;;-3276.70;74.20;;;;;;5046188;28;19916;-77
2022/12/14 11:36:23;;;;;;;;;;;-3276.70;74.80;;;;;;5049472;28;19913;-77
2022/12/14 11:38:54;;;;;;;;;;;0.00;74.70;;;;;;5051051;28;19959;-76
2022/12/14 11:41:20;;;;;;;;;;;0.00;74.80;;;;;;5046889;28;19916;-77
2022/12/14 11:43:59;;;;;;;;;;;-3276.70;74.90;;;;;;5046659;28;19924;-77
2022/12/14 11:46:39;;;;;;;;;;;-3276.70;75.20;;;;;;5041986;28;19916;-77
2022/12/14 11:49:17;;;;;;;;;;;0.00;74.80;;;;;;5048739;28;20436;-77
2022/12/14 11:51:54;;;;;;;;;;;-3276.70;74.50;;;;;;5040047;28;19913;-77
2022/12/14 11:54:20;;;;;;;;;;;0.00;74.50;;;;;;5041967;28;19916;-77
2022/12/14 11:56:48;;;;;;;;;;;0.00;74.40;;;;;;5049775;28;19908;-77
2022/12/14 11:59:15;;;;;;;;;;;0.00;74.70;;;;;;5047223;28;19923;-77
2022/12/14 12:01:41;;;;;;;;;;;0.00;74.20;;;;;;5042233;28;19945;-77
2022/12/14 12:04:11;;;;;;;;;;;0.00;74.40;;;;;;5036203;28;19964;-77
2022/12/14 12:06:36;;;;;;;;;;;0.20;74.20;;;;;;5046603;28;19928;-77
2022/12/14 12:09:08;;;;;;;;;;;0.30;74.10;;;;;;5043724;28;19913;-78
2022/12/14 12:11:34;;;;;;;;;;;0.40;74.10;;;;;;5038296;28;19922;-77
2022/12/14 12:14:02;;;;;;;;;;;0.40;74.40;;;;;;5044730;28;19920;-77
2022/12/14 12:16:29;;;;;;;;;;;0.50;74.60;;;;;;5045551;28;20281;-77
2022/12/14 12:18:54;;;;;;;;;;;0.60;74.10;;;;;;5067730;28;19917;-78
2022/12/14 12:21:25;;;;;;;;;;;0.60;74.10;;;;;;5050963;28;19913;-77
2022/12/14 12:23:50;;;;;;;;;;;0.60;73.50;;;;;;5048757;28;20328;-77
2022/12/14 12:26:16;;;;;;;;;;;0.60;73.10;;;;;;5048469;28;19917;-77
2022/12/14 12:28:45;;;;;;;;;;;0.60;73.40;;;;;;5051882;28;20633;-78
2022/12/14 12:31:14;;;;;;;;;;;0.50;73.00;;;;;;5044526;28;20322;-77
2022/12/14 12:33:43;;;;;;;;;;;0.50;72.70;;;;;;5048230;28;19917;-77
2022/12/14 12:36:10;;;;;;;;;;;0.50;72.80;;;;;;5047638;28;19924;-77
2022/12/14 12:38:42;;;;;;;;;;;0.50;71.60;;;;;;5051491;28;19913;-77
2022/12/14 12:41:16;;;;;;;;;;;0.50;71.60;;;;;;5050598;28;20499;-77
2022/12/14 12:44:08;;;;;;;;;;;0.40;72.10;;;;;;5047742;28;20430;-77
2022/12/14 12:46:37;;;;;;;;;;;0.40;72.10;;;;;;5045698;28;20023;-77
2022/12/14 12:49:10;;;;;;;;;;;0.40;72.20;;;;;;5042938;28;19913;-77
2022/12/14 12:51:53;;;;;;;;;;;0.30;72.90;;;;;;5030596;28;19928;-77
2022/12/14 12:54:23;;;;;;;;;;;0.30;73.20;;;;;;5059773;28;19912;-76
2022/12/14 12:56:50;;;;;;;;;;;0.30;73.20;;;;;;5045459;28;19923;-76
2022/12/14 12:59:23;;;;;;;;;;;0.40;72.70;;;;;;5050521;28;20377;-76
2022/12/14 13:01:51;;;;;;;;;;;0.40;73.00;;;;;;5048341;28;20291;-76
2022/12/14 13:04:23;;;;;;;;;;;0.50;72.70;;;;;;5049434;28;19917;-75
2022/12/14 13:06:48;;;;;;;;;;;0.40;72.60;;;;;;5078642;22;20382;-80
2022/12/14 13:09:18;;;;;;;;;;;0.40;72.00;;;;;;5054315;28;20000;-84
2022/12/14 13:11:43;;;;;;;;;;;0.50;71.80;;;;;;5057889;28;19913;-83
2022/12/14 13:14:24;;;;;;;;;;;0.50;71.30;;;;;;5062464;28;19976;-83
2022/12/14 13:16:50;;;;;;;;;;;0.60;71.10;;;;;;5062533;28;19956;-86
2022/12/14 13:19:28;;;;;;;;;;;0.70;70.70;;;;;;5059858;28;19916;-85
2022/12/14 13:21:53;;;;;;;;;;;0.70;70.40;;;;;;5056699;28;19913;-84
2022/12/14 13:24:20;;;;;;;;;;;0.70;69.90;;;;;;5064633;28;19937;-84
2022/12/14 13:27:05;;;;;;;;;;;0.60;69.80;;;;;;5062417;28;19913;-83
2022/12/14 13:29:49;;;;;;;;;;;0.70;69.40;;;;;;5063351;28;19967;-83
2022/12/14 13:32:33;;;;;;;;;;;0.90;68.80;;;;;;5061042;28;21390;-83
2022/12/14 13:35:01;;;;;;;;;;;0.90;68.60;;;;;;5052264;28;19940;-83
2022/12/14 13:37:45;;;;;;;;;;;0.80;68.60;;;;;;5054574;28;20654;-83
2022/12/14 13:40:14;;;;;;;;;;;0.80;68.10;;;;;;5056248;28;19919;-83
2022/12/14 13:42:50;;;;;;;;;;;0.80;67.80;;;;;;5052862;28;19966;-83
2022/12/14 13:45:18;;;;;;;;;;;0.80;67.70;;;;;;5052455;28;19925;-83
2022/12/14 13:47:47;;;;;;;;;;;0.70;67.90;;;;;;5053821;28;20015;-83
2022/12/14 13:50:33;;;;;;;;;;;0.60;68.40;;;;;;5050809;28;19919;-82
2022/12/14 13:53:01;;;;;;;;;;;0.60;68.80;;;;;;5052943;28;19931;-83
2022/12/14 13:55:31;;;;;;;;;;;0.60;68.10;;;;;;5049631;28;19994;-81
2022/12/14 13:58:05;;;;;;;;;;;0.60;68.90;;;;;;5052744;28;19917;-83
2022/12/14 14:00:43;;;;;;;;;;;0.60;68.30;;;;;;5049159;28;20398;-82
2022/12/14 14:03:28;;;;;;;;;;;0.60;68.60;;;;;;5060892;28;20381;-83
2022/12/14 14:06:00;;;;;;;;;;;0.60;69.00;;;;;;5047362;28;20413;-83
2022/12/14 14:08:27;;;;;;;;;;;0.60;68.50;;;;;;5061550;28;19929;-82
2022/12/14 14:10:52;;;;;;;;;;;0.60;68.60;;;;;;5049090;28;19912;-82
2022/12/14 14:13:27;;;;;;;;;;;0.50;68.30;;;;;;5044267;28;19974;-82
2022/12/14 14:16:13;;;;;;;;;;;0.50;68.20;;;;;;5059462;28;19919;-81